sensor_id;sensor_type;location;lat;lon;timestamp;pressure;altitude;pressure_sealevel;temperature;humidity
31082;BME280;17737;52.586;13.284;2023-11-22T00:00:18;102102.38;;;2.32;100.00
31082;BME280;17737;52.586;13.284;2023-11-22T00:02:48;102102.53;;;2.29;100.00
31082;BME280;17737;52.586;13.284;2023-11-22T00:05:17;102109.13;;;2.22;100.00
31082;BME280;17737;52.586;13.284;2023-11-22T00:07:45;102110.66;;;2.10;100.00
31082;BME280;17737;52.586;13.284;2023-11-22T00:10:14;102109.38;;;2.17;100.00
31082;BME280;17737;52.586;13.284;2023-11-22T00:12:42;102113.31;;;2.10;100.00
31082;BME280;17737;52.586;13.284;2023-11-22T00:15:12;102117.78;;;1.93;100.00
31082;BME280;17737;52.586;13.284;2023-11-22T00:17:44;102129.97;;;1.97;100.00
31082;BME280;17737;52.586;13.284;2023-11-22T00:20:13;102133.44;;;1.99;100.00
31082;BME280;17737;52.586;13.284;2023-11-22T00:22:41;102136.63;;;1.88;100.00
31082;BME280;17737;52.586;13.284;2023-11-22T00:25:11;102145.78;;;1.83;100.00
31082;BME280;17737;52.586;13.284;2023-11-22T00:27:40;102152.41;;;1.74;100.00
31082;BME280;17737;52.586;13.284;2023-11-22T00:30:09;102159.66;;;1.54;100.00
31082;BME280;17737;52.586;13.284;2023-11-22T00:32:40;102148.84;;;1.58;100.00
31082;BME280;17737;52.586;13.284;2023-11-22T00:35:09;102150.53;;;1.59;100.00
31082;BME280;17737;52.586;13.284;2023-11-22T00:37:37;102148.22;;;1.70;100.00
31082;BME280;17737;52.586;13.284;2023-11-22T00:40:06;102156.47;;;1.47;100.00
31082;BME280;17737;52.586;13.284;2023-11-22T00:42:38;102156.31;;;1.50;100.00
31082;BME280;17737;52.586;13.284;2023-11-22T00:45:09;102161.63;;;1.67;100.00
31082;BME280;17737;52.586;13.284;2023-11-22T00:47:39;102159.19;;;1.46;100.00
31082;BME280;17737;52.586;13.284;2023-11-22T00:50:07;102167.72;;;1.52;100.00
31082;BME280;17737;52.586;13.284;2023-11-22T00:52:36;102166.22;;;1.47;100.00
31082;BME280;17737;52.586;13.284;2023-11-22T00:55:05;102171.41;;;1.50;100.00
31082;BME280;17737;52.586;13.284;2023-11-22T00:57:34;102184.56;;;1.34;100.00
31082;BME280;17737;52.586;13.284;2023-11-22T01:00:04;102183.69;;;1.34;100.00
31082;BME280;17737;52.586;13.284;2023-11-22T01:02:35;102188.72;;;1.40;100.00
31082;BME280;17737;52.586;13.284;2023-11-22T01:05:08;102192.63;;;1.33;100.00
31082;BME280;17737;52.586;13.284;2023-11-22T01:07:38;102199.50;;;1.18;100.00
31082;BME280;17737;52.586;13.284;2023-11-22T01:10:07;102196.78;;;1.19;100.00
31082;BME280;17737;52.586;13.284;2023-11-22T01:12:36;102191.03;;;1.29;100.00
31082;BME280;17737;52.586;13.284;2023-11-22T01:15:05;102185.75;;;1.10;100.00
31082;BME280;17737;52.586;13.284;2023-11-22T01:17:34;102187.34;;;1.14;100.00
31082;BME280;17737;52.586;13.284;2023-11-22T01:20:03;102179.00;;;1.21;100.00
31082;BME280;17737;52.586;13.284;2023-11-22T01:22:33;102175.22;;;1.08;100.00
31082;BME280;17737;52.586;13.284;2023-11-22T01:25:01;102181.03;;;0.98;100.00
31082;BME280;17737;52.586;13.284;2023-11-22T01:27:29;102183.19;;;1.08;100.00
31082;BME280;17737;52.586;13.284;2023-11-22T01:29:57;102174.56;;;1.03;100.00
31082;BME280;17737;52.586;13.284;2023-11-22T01:32:25;102185.47;;;0.97;100.00
31082;BME280;17737;52.586;13.284;2023-11-22T01:34:54;102192.63;;;0.95;100.00
31082;BME280;17737;52.586;13.284;2023-11-22T01:37:25;102182.75;;;0.80;100.00
31082;BME280;17737;52.586;13.284;2023-11-22T01:39:55;102170.19;;;0.84;100.00
31082;BME280;17737;52.586;13.284;2023-11-22T01:42:24;102167.19;;;0.73;100.00
31082;BME280;17737;52.586;13.284;2023-11-22T01:44:52;102175.88;;;0.76;100.00
31082;BME280;17737;52.586;13.284;2023-11-22T01:47:20;102185.19;;;0.85;100.00
31082;BME280;17737;52.586;13.284;2023-11-22T01:49:49;102186.50;;;0.76;100.00
31082;BME280;17737;52.586;13.284;2023-11-22T01:52:18;102192.13;;;0.87;100.00
31082;BME280;17737;52.586;13.284;2023-11-22T01:54:46;102192.56;;;0.78;100.00
31082;BME280;17737;52.586;13.284;2023-11-22T01:57:17;102198.31;;;0.88;100.00
31082;BME280;17737;52.586;13.284;2023-11-22T01:59:46;102198.88;;;0.76;100.00
31082;BME280;17737;52.586;13.284;2023-11-22T02:02:15;102211.13;;;0.78;100.00
31082;BME280;17737;52.586;13.284;2023-11-22T02:04:43;102223.41;;;0.81;100.00
31082;BME280;17737;52.586;13.284;2023-11-22T02:07:11;102223.56;;;0.96;100.00
31082;BME280;17737;52.586;13.284;2023-11-22T02:09:38;102218.81;;;0.84;100.00
31082;BME280;17737;52.586;13.284;2023-11-22T02:12:07;102217.38;;;0.77;100.00
31082;BME280;17737;52.586;13.284;2023-11-22T02:14:38;102218.66;;;0.87;100.00
31082;BME280;17737;52.586;13.284;2023-11-22T02:17:06;102214.47;;;0.83;100.00
31082;BME280;17737;52.586;13.284;2023-11-22T02:19:34;102211.34;;;0.92;100.00
31082;BME280;17737;52.586;13.284;2023-11-22T02:22:03;102211.09;;;0.98;100.00
31082;BME280;17737;52.586;13.284;2023-11-22T02:24:33;102218.66;;;0.87;100.00
31082;BME280;17737;52.586;13.284;2023-11-22T02:27:01;102222.84;;;0.93;100.00
31082;BME280;17737;52.586;13.284;2023-11-22T02:29:30;102233.22;;;0.79;100.00
31082;BME280;17737;52.586;13.284;2023-11-22T02:31:58;102232.28;;;0.61;100.00
31082;BME280;17737;52.586;13.284;2023-11-22T02:34:26;102237.63;;;0.80;100.00
31082;BME280;17737;52.586;13.284;2023-11-22T02:36:54;102248.00;;;0.84;100.00
31082;BME280;17737;52.586;13.284;2023-11-22T02:39:35;102252.09;;;0.73;100.00
31082;BME280;17737;52.586;13.284;2023-11-22T02:42:14;102255.66;;;0.90;100.00
31082;BME280;17737;52.586;13.284;2023-11-22T02:44:42;102257.09;;;0.79;100.00
31082;BME280;17737;52.586;13.284;2023-11-22T02:47:11;102253.56;;;0.78;100.00
31082;BME280;17737;52.586;13.284;2023-11-22T02:49:39;102259.31;;;0.69;100.00
31082;BME280;17737;52.586;13.284;2023-11-22T02:52:07;102269.50;;;0.78;100.00
31082;BME280;17737;52.586;13.284;2023-11-22T02:54:37;102284.81;;;0.72;100.00
31082;BME280;17737;52.586;13.284;2023-11-22T02:57:05;102282.75;;;0.78;100.00
31082;BME280;17737;52.586;13.284;2023-11-22T02:59:33;102295.63;;;0.87;100.00
31082;BME280;17737;52.586;13.284;2023-11-22T03:02:02;102296.34;;;0.91;100.00
31082;BME280;17737;52.586;13.284;2023-11-22T03:04:30;102304.06;;;0.95;100.00
31082;BME280;17737;52.586;13.284;2023-11-22T03:06:58;102310.34;;;0.94;100.00
31082;BME280;17737;52.586;13.284;2023-11-22T03:09:26;102315.81;;;0.71;100.00
31082;BME280;17737;52.586;13.284;2023-11-22T03:11:56;102306.13;;;0.50;100.00
31082;BME280;17737;52.586;13.284;2023-11-22T03:14:24;102305.31;;;0.68;100.00
31082;BME280;17737;52.586;13.284;2023-11-22T03:16:52;102311.22;;;0.55;100.00
31082;BME280;17737;52.586;13.284;2023-11-22T03:19:20;102314.75;;;0.55;100.00
31082;BME280;17737;52.586;13.284;2023-11-22T03:21:49;102322.50;;;0.60;100.00
31082;BME280;17737;52.586;13.284;2023-11-22T03:24:17;102322.56;;;0.58;100.00
31082;BME280;17737;52.586;13.284;2023-11-22T03:26:45;102322.03;;;0.50;100.00
31082;BME280;17737;52.586;13.284;2023-11-22T03:29:15;102323.50;;;0.57;100.00
31082;BME280;17737;52.586;13.284;2023-11-22T03:31:44;102322.91;;;0.51;100.00
31082;BME280;17737;52.586;13.284;2023-11-22T03:34:13;102328.94;;;0.54;100.00
31082;BME280;17737;52.586;13.284;2023-11-22T03:36:41;102317.63;;;0.51;100.00
31082;BME280;17737;52.586;13.284;2023-11-22T03:39:10;102313.81;;;0.56;100.00
31082;BME280;17737;52.586;13.284;2023-11-22T03:41:38;102315.81;;;0.51;100.00
31082;BME280;17737;52.586;13.284;2023-11-22T03:44:06;102307.97;;;0.48;100.00
31082;BME280;17737;52.586;13.284;2023-11-22T03:46:36;102305.75;;;0.59;100.00
31082;BME280;17737;52.586;13.284;2023-11-22T03:49:05;102304.00;;;0.58;100.00
31082;BME280;17737;52.586;13.284;2023-11-22T03:51:35;102310.50;;;0.51;100.00
31082;BME280;17737;52.586;13.284;2023-11-22T03:54:04;102310.63;;;0.48;100.00
31082;BME280;17737;52.586;13.284;2023-11-22T03:56:32;102317.09;;;0.63;100.00
31082;BME280;17737;52.586;13.284;2023-11-22T03:59:01;102322.84;;;0.52;100.00
31082;BME280;17737;52.586;13.284;2023-11-22T04:01:30;102344.50;;;0.62;100.00
31082;BME280;17737;52.586;13.284;2023-11-22T04:04:00;102356.72;;;0.66;100.00
31082;BME280;17737;52.586;13.284;2023-11-22T04:06:28;102367.06;;;0.72;100.00
31082;BME280;17737;52.586;13.284;2023-11-22T04:08:56;102376.03;;;0.69;100.00
31082;BME280;17737;52.586;13.284;2023-11-22T04:11:24;102366.06;;;0.74;100.00
31082;BME280;17737;52.586;13.284;2023-11-22T04:13:54;102356.38;;;0.53;100.00
31082;BME280;17737;52.586;13.284;2023-11-22T04:16:23;102357.56;;;0.46;100.00
31082;BME280;17737;52.586;13.284;2023-11-22T04:18:52;102347.97;;;0.44;100.00
31082;BME280;17737;52.586;13.284;2023-11-22T04:21:22;102345.69;;;0.35;100.00
31082;BME280;17737;52.586;13.284;2023-11-22T04:23:50;102339.34;;;0.39;100.00
31082;BME280;17737;52.586;13.284;2023-11-22T04:26:18;102357.47;;;0.49;100.00
31082;BME280;17737;52.586;13.284;2023-11-22T04:28:47;102355.97;;;0.22;100.00
31082;BME280;17737;52.586;13.284;2023-11-22T04:31:15;102375.47;;;0.41;100.00
31082;BME280;17737;52.586;13.284;2023-11-22T04:33:44;102373.97;;;0.34;100.00
31082;BME280;17737;52.586;13.284;2023-11-22T04:36:12;102376.25;;;0.43;100.00
31082;BME280;17737;52.586;13.284;2023-11-22T04:38:42;102375.53;;;0.40;100.00
31082;BME280;17737;52.586;13.284;2023-11-22T04:41:10;102380.91;;;0.38;100.00
31082;BME280;17737;52.586;13.284;2023-11-22T04:43:38;102385.22;;;0.41;100.00
31082;BME280;17737;52.586;13.284;2023-11-22T04:46:06;102395.25;;;0.33;100.00
31082;BME280;17737;52.586;13.284;2023-11-22T04:48:35;102393.09;;;0.42;100.00
31082;BME280;17737;52.586;13.284;2023-11-22T04:51:07;102404.56;;;0.43;100.00
31082;BME280;17737;52.586;13.284;2023-11-22T04:53:35;102407.03;;;0.47;100.00
31082;BME280;17737;52.586;13.284;2023-11-22T04:56:05;102404.38;;;0.47;100.00
31082;BME280;17737;52.586;13.284;2023-11-22T04:58:34;102413.38;;;0.43;100.00
31082;BME280;17737;52.586;13.284;2023-11-22T05:01:02;102420.53;;;0.41;100.00
31082;BME280;17737;52.586;13.284;2023-11-22T05:03:31;102419.72;;;0.39;100.00
31082;BME280;17737;52.586;13.284;2023-11-22T05:05:59;102415.00;;;0.26;100.00
31082;BME280;17737;52.586;13.284;2023-11-22T05:08:27;102419.38;;;0.27;100.00
31082;BME280;17737;52.586;13.284;2023-11-22T05:10:56;102435.91;;;0.33;100.00
31082;BME280;17737;52.586;13.284;2023-11-22T05:13:26;102440.72;;;0.24;100.00
31082;BME280;17737;52.586;13.284;2023-11-22T05:15:54;102441.69;;;0.21;100.00
31082;BME280;17737;52.586;13.284;2023-11-22T05:18:22;102439.09;;;0.20;100.00
31082;BME280;17737;52.586;13.284;2023-11-22T05:20:51;102432.84;;;0.22;100.00
31082;BME280;17737;52.586;13.284;2023-11-22T05:23:20;102430.84;;;0.06;100.00
31082;BME280;17737;52.586;13.284;2023-11-22T05:25:48;102428.97;;;-0.14;100.00
31082;BME280;17737;52.586;13.284;2023-11-22T05:28:16;102443.53;;;-0.03;100.00
31082;BME280;17737;52.586;13.284;2023-11-22T05:30:46;102455.34;;;-0.11;100.00
31082;BME280;17737;52.586;13.284;2023-11-22T05:33:15;102458.69;;;-0.06;100.00
31082;BME280;17737;52.586;13.284;2023-11-22T05:35:43;102469.41;;;0.13;100.00
31082;BME280;17737;52.586;13.284;2023-11-22T05:38:11;102489.53;;;0.18;100.00
31082;BME280;17737;52.586;13.284;2023-11-22T05:40:40;102475.94;;;0.04;100.00
31082;BME280;17737;52.586;13.284;2023-11-22T05:43:09;102485.13;;;0.17;100.00
31082;BME280;17737;52.586;13.284;2023-11-22T05:45:38;102483.34;;;-0.04;100.00
31082;BME280;17737;52.586;13.284;2023-11-22T05:48:08;102483.59;;;0.12;100.00
31082;BME280;17737;52.586;13.284;2023-11-22T05:50:36;102485.66;;;0.03;100.00
31082;BME280;17737;52.586;13.284;2023-11-22T05:53:05;102470.53;;;0.07;100.00
31082;BME280;17737;52.586;13.284;2023-11-22T05:55:33;102465.41;;;0.03;100.00
31082;BME280;17737;52.586;13.284;2023-11-22T05:58:01;102459.03;;;-0.15;100.00
31082;BME280;17737;52.586;13.284;2023-11-22T06:00:30;102460.72;;;-0.13;100.00
31082;BME280;17737;52.586;13.284;2023-11-22T06:02:58;102466.28;;;-0.20;100.00
31082;BME280;17737;52.586;13.284;2023-11-22T06:05:27;102465.03;;;-0.33;100.00
31082;BME280;17737;52.586;13.284;2023-11-22T06:07:55;102472.28;;;-0.38;100.00
31082;BME280;17737;52.586;13.284;2023-11-22T06:10:23;102479.94;;;-0.31;100.00
31082;BME280;17737;52.586;13.284;2023-11-22T06:12:51;102486.09;;;-0.30;100.00
31082;BME280;17737;52.586;13.284;2023-11-22T06:15:19;102479.09;;;-0.31;100.00
31082;BME280;17737;52.586;13.284;2023-11-22T06:17:49;102488.53;;;-0.24;100.00
31082;BME280;17737;52.586;13.284;2023-11-22T06:20:17;102485.81;;;-0.23;100.00
31082;BME280;17737;52.586;13.284;2023-11-22T06:22:47;102492.44;;;-0.11;100.00
31082;BME280;17737;52.586;13.284;2023-11-22T06:25:15;102493.00;;;-0.03;100.00
31082;BME280;17737;52.586;13.284;2023-11-22T06:27:43;102490.41;;;-0.05;100.00
31082;BME280;17737;52.586;13.284;2023-11-22T06:30:11;102495.91;;;-0.09;100.00
31082;BME280;17737;52.586;13.284;2023-11-22T06:32:41;102493.94;;;-0.04;100.00
31082;BME280;17737;52.586;13.284;2023-11-22T06:35:10;102493.38;;;-0.12;100.00
31082;BME280;17737;52.586;13.284;2023-11-22T06:37:41;102501.94;;;-0.06;100.00
31082;BME280;17737;52.586;13.284;2023-11-22T06:40:11;102518.00;;;-0.10;100.00
31082;BME280;17737;52.586;13.284;2023-11-22T06:42:40;102529.19;;;-0.02;100.00
31082;BME280;17737;52.586;13.284;2023-11-22T06:45:09;102530.03;;;-0.02;100.00
31082;BME280;17737;52.586;13.284;2023-11-22T06:47:39;102544.66;;;0.09;100.00
31082;BME280;17737;52.586;13.284;2023-11-22T06:50:08;102548.88;;;0.14;100.00
31082;BME280;17737;52.586;13.284;2023-11-22T06:52:38;102552.19;;;0.19;100.00
31082;BME280;17737;52.586;13.284;2023-11-22T06:55:07;102560.78;;;0.26;100.00
31082;BME280;17737;52.586;13.284;2023-11-22T06:57:38;102566.50;;;0.15;100.00
31082;BME280;17737;52.586;13.284;2023-11-22T07:00:07;102569.03;;;0.18;100.00
31082;BME280;17737;52.586;13.284;2023-11-22T07:02:39;102566.56;;;0.14;100.00
31082;BME280;17737;52.586;13.284;2023-11-22T07:05:07;102569.25;;;0.12;100.00
31082;BME280;17737;52.586;13.284;2023-11-22T07:07:39;102582.50;;;0.12;100.00
31082;BME280;17737;52.586;13.284;2023-11-22T07:10:07;102583.56;;;0.08;100.00
31082;BME280;17737;52.586;13.284;2023-11-22T07:12:38;102578.41;;;0.03;100.00
31082;BME280;17737;52.586;13.284;2023-11-22T07:15:07;102583.56;;;0.08;100.00
31082;BME280;17737;52.586;13.284;2023-11-22T07:17:36;102586.66;;;0.19;100.00
31082;BME280;17737;52.586;13.284;2023-11-22T07:20:06;102592.25;;;0.12;100.00
31082;BME280;17737;52.586;13.284;2023-11-22T07:22:42;102582.84;;;0.26;100.00
31082;BME280;17737;52.586;13.284;2023-11-22T07:25:17;102583.94;;;0.21;100.00
31082;BME280;17737;52.586;13.284;2023-11-22T07:27:46;102594.63;;;0.42;100.00
31082;BME280;17737;52.586;13.284;2023-11-22T07:30:16;102587.94;;;0.32;100.00
31082;BME280;17737;52.586;13.284;2023-11-22T07:32:46;102588.50;;;0.17;100.00
31082;BME280;17737;52.586;13.284;2023-11-22T07:35:15;102597.28;;;0.42;100.00
31082;BME280;17737;52.586;13.284;2023-11-22T07:37:43;102601.50;;;0.46;100.00
31082;BME280;17737;52.586;13.284;2023-11-22T07:40:12;102603.13;;;0.50;100.00
31082;BME280;17737;52.586;13.284;2023-11-22T07:42:42;102582.38;;;0.61;100.00
31082;BME280;17737;52.586;13.284;2023-11-22T07:45:10;102582.09;;;0.46;100.00
31082;BME280;17737;52.586;13.284;2023-11-22T07:47:40;102581.84;;;0.52;100.00
31082;BME280;17737;52.586;13.284;2023-11-22T07:50:11;102583.69;;;0.50;100.00
31082;BME280;17737;52.586;13.284;2023-11-22T07:52:39;102581.34;;;0.42;100.00
31082;BME280;17737;52.586;13.284;2023-11-22T07:55:11;102583.63;;;0.51;100.00
31082;BME280;17737;52.586;13.284;2023-11-22T07:57:42;102563.91;;;0.58;100.00
31082;BME280;17737;52.586;13.284;2023-11-22T08:00:11;102565.84;;;0.76;100.00
31082;BME280;17737;52.586;13.284;2023-11-22T08:02:40;102545.13;;;0.64;100.00
31082;BME280;17737;52.586;13.284;2023-11-22T08:05:09;102556.13;;;0.75;100.00
31082;BME280;17737;52.586;13.284;2023-11-22T08:07:46;102552.31;;;0.82;100.00
31082;BME280;17737;52.586;13.284;2023-11-22T08:10:17;102552.25;;;0.84;100.00
31082;BME280;17737;52.586;13.284;2023-11-22T08:12:56;102548.75;;;0.83;100.00
31082;BME280;17737;52.586;13.284;2023-11-22T08:15:27;102555.50;;;0.90;100.00
31082;BME280;17737;52.586;13.284;2023-11-22T08:17:55;102559.41;;;0.82;100.00
31082;BME280;17737;52.586;13.284;2023-11-22T08:20:23;102566.13;;;0.90;100.00
31082;BME280;17737;52.586;13.284;2023-11-22T08:22:52;102557.72;;;1.01;100.00
31082;BME280;17737;52.586;13.284;2023-11-22T08:25:20;102559.28;;;1.06;100.00
31082;BME280;17737;52.586;13.284;2023-11-22T08:27:49;102569.88;;;1.06;100.00
31082;BME280;17737;52.586;13.284;2023-11-22T08:30:24;102579.19;;;1.16;100.00
31082;BME280;17737;52.586;13.284;2023-11-22T08:32:55;102579.84;;;1.21;100.00
31082;BME280;17737;52.586;13.284;2023-11-22T08:35:24;102575.16;;;1.28;100.00
31082;BME280;17737;52.586;13.284;2023-11-22T08:37:52;102580.88;;;1.39;100.00
31082;BME280;17737;52.586;13.284;2023-11-22T08:40:24;102572.13;;;1.37;100.00
31082;BME280;17737;52.586;13.284;2023-11-22T08:42:53;102575.50;;;1.61;100.00
31082;BME280;17737;52.586;13.284;2023-11-22T08:45:21;102580.47;;;1.48;100.00
31082;BME280;17737;52.586;13.284;2023-11-22T08:47:51;102583.59;;;1.38;100.00
31082;BME280;17737;52.586;13.284;2023-11-22T08:50:19;102593.44;;;1.56;100.00
31082;BME280;17737;52.586;13.284;2023-11-22T08:52:49;102589.56;;;1.83;100.00
31082;BME280;17737;52.586;13.284;2023-11-22T08:55:20;102591.34;;;1.82;100.00
31082;BME280;17737;52.586;13.284;2023-11-22T08:57:48;102592.47;;;1.97;100.00
31082;BME280;17737;52.586;13.284;2023-11-22T09:00:18;102603.47;;;2.08;100.00
31082;BME280;17737;52.586;13.284;2023-11-22T09:02:50;102606.16;;;1.88;100.00
31082;BME280;17737;52.586;13.284;2023-11-22T09:05:19;102610.22;;;1.96;100.00
31082;BME280;17737;52.586;13.284;2023-11-22T09:07:48;102603.13;;;1.97;100.00
31082;BME280;17737;52.586;13.284;2023-11-22T09:10:17;102591.22;;;2.05;100.00
31082;BME280;17737;52.586;13.284;2023-11-22T09:12:48;102570.50;;;2.12;100.00
31082;BME280;17737;52.586;13.284;2023-11-22T09:15:18;102587.59;;;2.06;100.00
31082;BME280;17737;52.586;13.284;2023-11-22T09:17:54;102568.16;;;2.24;100.00
31082;BME280;17737;52.586;13.284;2023-11-22T09:20:24;102559.66;;;2.35;100.00
31082;BME280;17737;52.586;13.284;2023-11-22T09:22:54;102561.97;;;2.61;100.00
31082;BME280;17737;52.586;13.284;2023-11-22T09:25:23;102558.97;;;2.50;100.00
31082;BME280;17737;52.586;13.284;2023-11-22T09:27:53;102550.41;;;2.62;100.00
31082;BME280;17737;52.586;13.284;2023-11-22T09:30:27;102548.28;;;2.69;100.00
31082;BME280;17737;52.586;13.284;2023-11-22T09:33:07;102551.44;;;2.77;100.00
31082;BME280;17737;52.586;13.284;2023-11-22T09:35:38;102551.66;;;2.72;100.00
31082;BME280;17737;52.586;13.284;2023-11-22T09:38:06;102551.09;;;2.47;100.00
31082;BME280;17737;52.586;13.284;2023-11-22T09:40:40;102545.72;;;2.67;100.00
31082;BME280;17737;52.586;13.284;2023-11-22T09:43:10;102550.28;;;2.82;100.00
31082;BME280;17737;52.586;13.284;2023-11-22T09:45:41;102542.66;;;2.75;100.00
31082;BME280;17737;52.586;13.284;2023-11-22T09:48:15;102541.97;;;2.88;100.00
31082;BME280;17737;52.586;13.284;2023-11-22T09:50:50;102540.78;;;2.77;100.00
31082;BME280;17737;52.586;13.284;2023-11-22T09:53:30;102539.63;;;2.82;100.00
31082;BME280;17737;52.586;13.284;2023-11-22T09:56:01;102549.69;;;3.11;100.00
31082;BME280;17737;52.586;13.284;2023-11-22T09:58:34;102558.44;;;3.13;100.00
31082;BME280;17737;52.586;13.284;2023-11-22T10:01:05;102561.63;;;2.86;100.00
31082;BME280;17737;52.586;13.284;2023-11-22T10:03:35;102576.16;;;2.97;100.00
31082;BME280;17737;52.586;13.284;2023-11-22T10:06:05;102575.28;;;2.97;100.00
31082;BME280;17737;52.586;13.284;2023-11-22T10:08:34;102579.81;;;2.95;100.00
31082;BME280;17737;52.586;13.284;2023-11-22T10:11:03;102579.84;;;3.12;100.00
31082;BME280;17737;52.586;13.284;2023-11-22T10:13:33;102578.69;;;3.17;100.00
31082;BME280;17737;52.586;13.284;2023-11-22T10:16:09;102571.63;;;3.16;100.00
31082;BME280;17737;52.586;13.284;2023-11-22T10:18:41;102568.97;;;3.16;100.00
31082;BME280;17737;52.586;13.284;2023-11-22T10:21:21;102578.50;;;3.20;100.00
31082;BME280;17737;52.586;13.284;2023-11-22T10:23:53;102574.78;;;3.24;100.00
31082;BME280;17737;52.586;13.284;2023-11-22T10:26:23;102585.75;;;3.18;100.00
31082;BME280;17737;52.586;13.284;2023-11-22T10:28:55;102590.44;;;3.30;100.00
31082;BME280;17737;52.586;13.284;2023-11-22T10:31:24;102594.22;;;3.43;100.00
31082;BME280;17737;52.586;13.284;2023-11-22T10:33:56;102601.34;;;3.60;100.00
31082;BME280;17737;52.586;13.284;2023-11-22T10:36:25;102594.69;;;3.51;100.00
31082;BME280;17737;52.586;13.284;2023-11-22T10:38:54;102578.59;;;3.53;100.00
31082;BME280;17737;52.586;13.284;2023-11-22T10:41:24;102580.97;;;3.76;100.00
31082;BME280;17737;52.586;13.284;2023-11-22T10:43:52;102575.66;;;3.42;100.00
31082;BME280;17737;52.586;13.284;2023-11-22T10:46:27;102576.03;;;3.51;100.00
31082;BME280;17737;52.586;13.284;2023-11-22T10:48:59;102585.09;;;3.64;100.00
31082;BME280;17737;52.586;13.284;2023-11-22T10:51:28;102594.13;;;3.79;100.00
31082;BME280;17737;52.586;13.284;2023-11-22T10:54:00;102604.09;;;3.76;100.00
31082;BME280;17737;52.586;13.284;2023-11-22T10:56:36;102607.38;;;3.81;100.00
31082;BME280;17737;52.586;13.284;2023-11-22T10:59:10;102592.34;;;3.62;100.00
31082;BME280;17737;52.586;13.284;2023-11-22T11:01:45;102588.63;;;3.82;100.00
31082;BME280;17737;52.586;13.284;2023-11-22T11:04:24;102588.78;;;3.79;100.00
31082;BME280;17737;52.586;13.284;2023-11-22T11:06:55;102592.94;;;3.85;100.00
31082;BME280;17737;52.586;13.284;2023-11-22T11:09:25;102585.28;;;4.11;100.00
31082;BME280;17737;52.586;13.284;2023-11-22T11:11:59;102576.88;;;4.19;100.00
31082;BME280;17737;52.586;13.284;2023-11-22T11:14:34;102568.34;;;4.28;100.00
31082;BME280;17737;52.586;13.284;2023-11-22T11:17:04;102573.16;;;4.21;100.00
31082;BME280;17737;52.586;13.284;2023-11-22T11:19:35;102577.13;;;4.30;100.00
31082;BME280;17737;52.586;13.284;2023-11-22T11:22:03;102562.06;;;4.29;100.00
31082;BME280;17737;52.586;13.284;2023-11-22T11:24:38;102546.75;;;4.32;100.00
31082;BME280;17737;52.586;13.284;2023-11-22T11:27:08;102553.69;;;4.19;100.00
31082;BME280;17737;52.586;13.284;2023-11-22T11:29:37;102562.88;;;3.98;100.00
31082;BME280;17737;52.586;13.284;2023-11-22T11:32:10;102558.50;;;3.80;100.00
31082;BME280;17737;52.586;13.284;2023-11-22T11:34:50;102541.69;;;3.95;100.00
31082;BME280;17737;52.586;13.284;2023-11-22T11:37:19;102530.00;;;3.98;100.00
31082;BME280;17737;52.586;13.284;2023-11-22T11:39:47;102519.78;;;4.06;100.00
31082;BME280;17737;52.586;13.284;2023-11-22T11:42:15;102520.38;;;4.11;100.00
31082;BME280;17737;52.586;13.284;2023-11-22T11:44:52;102518.84;;;4.07;100.00
31082;BME280;17737;52.586;13.284;2023-11-22T11:47:34;102517.66;;;4.28;100.00
31082;BME280;17737;52.586;13.284;2023-11-22T11:50:04;102515.34;;;4.22;100.00
31082;BME280;17737;52.586;13.284;2023-11-22T11:52:33;102498.47;;;4.37;100.00
31082;BME280;17737;52.586;13.284;2023-11-22T11:55:02;102492.16;;;4.38;100.00
31082;BME280;17737;52.586;13.284;2023-11-22T11:57:31;102483.22;;;4.54;100.00
31082;BME280;17737;52.586;13.284;2023-11-22T11:59:59;102469.81;;;4.40;100.00
31082;BME280;17737;52.586;13.284;2023-11-22T12:02:29;102470.13;;;4.50;100.00
31082;BME280;17737;52.586;13.284;2023-11-22T12:04:57;102470.13;;;4.50;100.00
31082;BME280;17737;52.586;13.284;2023-11-22T12:07:26;102464.56;;;4.39;100.00
31082;BME280;17737;52.586;13.284;2023-11-22T12:09:54;102470.19;;;4.64;100.00
31082;BME280;17737;52.586;13.284;2023-11-22T12:12:24;102452.06;;;4.39;100.00
31082;BME280;17737;52.586;13.284;2023-11-22T12:14:52;102445.81;;;4.70;100.00
31082;BME280;17737;52.586;13.284;2023-11-22T12:17:22;102436.38;;;4.64;100.00
31082;BME280;17737;52.586;13.284;2023-11-22T12:19:50;102425.19;;;4.58;100.00
31082;BME280;17737;52.586;13.284;2023-11-22T12:22:19;102413.19;;;4.65;100.00
31082;BME280;17737;52.586;13.284;2023-11-22T12:24:49;102404.38;;;4.49;100.00
31082;BME280;17737;52.586;13.284;2023-11-22T12:27:18;102398.03;;;4.65;100.00
31082;BME280;17737;52.586;13.284;2023-11-22T12:29:49;102381.78;;;4.84;100.00
31082;BME280;17737;52.586;13.284;2023-11-22T12:32:23;102388.94;;;4.54;100.00
31082;BME280;17737;52.586;13.284;2023-11-22T12:34:51;102396.91;;;4.69;100.00
31082;BME280;17737;52.586;13.284;2023-11-22T12:37:20;102399.38;;;4.43;100.00
31082;BME280;17737;52.586;13.284;2023-11-22T12:39:51;102405.94;;;4.37;100.00
31082;BME280;17737;52.586;13.284;2023-11-22T12:42:20;102422.50;;;4.87;100.00
31082;BME280;17737;52.586;13.284;2023-11-22T12:44:48;102447.63;;;4.99;100.00
31082;BME280;17737;52.586;13.284;2023-11-22T12:47:31;102455.63;;;4.99;100.00
31082;BME280;17737;52.586;13.284;2023-11-22T12:50:02;102439.88;;;4.65;100.00